sensor_id;sensor_type;location;lat;lon;timestamp;pressure;altitude;pressure_sealevel;temperature;humidity
20909;BME280;10614;53.198;6.570;2023-03-15T00:00:42;100903.78;;;2.40;100.00
20909;BME280;10614;53.198;6.570;2023-03-15T00:02:44;100908.13;;;2.40;100.00
20909;BME280;10614;53.198;6.570;2023-03-15T00:04:46;100913.31;;;2.38;100.00
20909;BME280;10614;53.198;6.570;2023-03-15T00:06:48;100906.41;;;2.37;100.00
20909;BME280;10614;53.198;6.570;2023-03-15T00:08:49;100907.28;;;2.33;100.00
20909;BME280;10614;53.198;6.570;2023-03-15T00:10:52;100913.31;;;2.35;100.00
20909;BME280;10614;53.198;6.570;2023-03-15T00:12:54;100915.03;;;2.36;100.00
20909;BME280;10614;53.198;6.570;2023-03-15T00:14:56;100919.38;;;2.36;100.00
20909;BME280;10614;53.198;6.570;2023-03-15T00:16:57;100931.50;;;2.37;100.00
20909;BME280;10614;53.198;6.570;2023-03-15T00:18:59;100935.84;;;2.39;100.00
20909;BME280;10614;53.198;6.570;2023-03-15T00:21:00;100939.28;;;2.40;100.00
20909;BME280;10614;53.198;6.570;2023-03-15T00:23:02;100945.34;;;2.40;100.00
20909;BME280;10614;53.198;6.570;2023-03-15T00:25:04;100941.03;;;2.39;100.00
20909;BME280;10614;53.198;6.570;2023-03-15T00:27:07;100948.78;;;2.41;100.00
20909;BME280;10614;53.198;6.570;2023-03-15T00:29:09;100945.34;;;2.40;100.00
20909;BME280;10614;53.198;6.570;2023-03-15T00:31:12;100954.00;;;2.41;100.00
20909;BME280;10614;53.198;6.570;2023-03-15T00:33:17;100954.88;;;2.41;100.00
20909;BME280;10614;53.198;6.570;2023-03-15T00:35:18;100963.53;;;2.42;100.00
20909;BME280;10614;53.198;6.570;2023-03-15T00:37:20;100968.72;;;2.42;100.00
20909;BME280;10614;53.198;6.570;2023-03-15T00:39:24;100964.38;;;2.41;100.00
20909;BME280;10614;53.198;6.570;2023-03-15T00:41:26;100970.47;;;2.38;100.00
20909;BME280;10614;53.198;6.570;2023-03-15T00:43:29;100971.34;;;2.37;100.00
20909;BME280;10614;53.198;6.570;2023-03-15T00:45:31;100967.00;;;2.36;100.00
20909;BME280;10614;53.198;6.570;2023-03-15T00:47:32;100973.06;;;2.35;100.00
20909;BME280;10614;53.198;6.570;2023-03-15T00:49:34;100981.75;;;2.32;100.00
20909;BME280;10614;53.198;6.570;2023-03-15T00:51:35;100986.97;;;2.29;100.00
20909;BME280;10614;53.198;6.570;2023-03-15T00:53:38;100993.00;;;2.28;100.00
20909;BME280;10614;53.198;6.570;2023-03-15T00:55:40;100991.28;;;2.26;100.00
20909;BME280;10614;53.198;6.570;2023-03-15T00:57:42;100999.97;;;2.23;100.00
20909;BME280;10614;53.198;6.570;2023-03-15T00:59:46;101001.69;;;2.21;100.00
20909;BME280;10614;53.198;6.570;2023-03-15T01:01:47;101005.19;;;2.20;100.00
20909;BME280;10614;53.198;6.570;2023-03-15T01:03:49;100999.09;;;2.20;100.00
20909;BME280;10614;53.198;6.570;2023-03-15T01:05:51;101018.16;;;2.19;100.00
20909;BME280;10614;53.198;6.570;2023-03-15T01:07:52;101027.69;;;2.18;100.00
20909;BME280;10614;53.198;6.570;2023-03-15T01:09:54;101027.69;;;2.17;100.00
20909;BME280;10614;53.198;6.570;2023-03-15T01:11:55;101035.47;;;2.15;100.00
20909;BME280;10614;53.198;6.570;2023-03-15T01:13:57;101037.22;;;2.13;100.00
20909;BME280;10614;53.198;6.570;2023-03-15T01:16:01;101028.56;;;2.11;100.00
20909;BME280;10614;53.198;6.570;2023-03-15T01:18:02;101032.88;;;2.12;100.00
20909;BME280;10614;53.198;6.570;2023-03-15T01:20:04;101038.94;;;2.09;100.00
20909;BME280;10614;53.198;6.570;2023-03-15T01:22:07;101039.81;;;2.07;100.00
20909;BME280;10614;53.198;6.570;2023-03-15T01:24:10;101038.97;;;2.06;100.00
20909;BME280;10614;53.198;6.570;2023-03-15T01:26:12;101042.41;;;2.05;100.00
20909;BME280;10614;53.198;6.570;2023-03-15T01:28:14;101048.47;;;2.06;100.00
20909;BME280;10614;53.198;6.570;2023-03-15T01:30:16;101052.81;;;2.04;100.00
20909;BME280;10614;53.198;6.570;2023-03-15T01:32:18;101056.25;;;2.01;100.00
20909;BME280;10614;53.198;6.570;2023-03-15T01:34:20;101051.94;;;1.99;100.00
20909;BME280;10614;53.198;6.570;2023-03-15T01:36:22;101056.28;;;2.00;100.00
20909;BME280;10614;53.198;6.570;2023-03-15T01:38:23;101059.72;;;1.99;100.00
20909;BME280;10614;53.198;6.570;2023-03-15T01:40:25;101056.28;;;1.97;100.00
20909;BME280;10614;53.198;6.570;2023-03-15T01:42:26;101064.91;;;1.94;100.00
20909;BME280;10614;53.198;6.570;2023-03-15T01:46:44;101076.16;;;1.96;100.00
20909;BME280;10614;53.198;6.570;2023-03-15T01:48:47;101075.31;;;1.97;100.00
20909;BME280;10614;53.198;6.570;2023-03-15T01:50:50;101083.09;;;1.99;100.00
20909;BME280;10614;53.198;6.570;2023-03-15T01:52:54;101081.38;;;2.01;100.00
20909;BME280;10614;53.198;6.570;2023-03-15T01:54:56;101077.91;;;1.99;100.00
20909;BME280;10614;53.198;6.570;2023-03-15T01:57:02;101082.22;;;1.98;100.00
20909;BME280;10614;53.198;6.570;2023-03-15T01:59:06;101077.91;;;1.96;100.00
20909;BME280;10614;53.198;6.570;2023-03-15T02:01:08;101081.38;;;1.96;100.00
20909;BME280;10614;53.198;6.570;2023-03-15T02:03:11;101086.56;;;1.98;100.00
20909;BME280;10614;53.198;6.570;2023-03-15T02:05:16;101092.63;;;1.97;100.00
20909;BME280;10614;53.198;6.570;2023-03-15T02:07:19;101100.41;;;1.95;100.00
20909;BME280;10614;53.198;6.570;2023-03-15T02:09:22;101105.63;;;1.92;100.00
20909;BME280;10614;53.198;6.570;2023-03-15T02:11:24;101106.47;;;1.91;100.00
20909;BME280;10614;53.198;6.570;2023-03-15T02:13:27;101103.88;;;1.89;100.00
20909;BME280;10614;53.198;6.570;2023-03-15T02:15:31;101110.81;;;1.87;100.00
20909;BME280;10614;53.198;6.570;2023-03-15T02:17:33;101112.53;;;1.85;100.00
20909;BME280;10614;53.198;6.570;2023-03-15T02:19:40;101116.00;;;1.83;100.00
20909;BME280;10614;53.198;6.570;2023-03-15T02:21:48;101123.78;;;1.83;100.00
20909;BME280;10614;53.198;6.570;2023-03-15T02:23:52;101117.72;;;1.81;100.00
20909;BME280;10614;53.198;6.570;2023-03-15T02:25:58;101130.69;;;1.79;100.00
20909;BME280;10614;53.198;6.570;2023-03-15T02:28:06;101142.81;;;1.79;100.00
20909;BME280;10614;53.198;6.570;2023-03-15T02:30:08;101139.34;;;1.78;100.00
20909;BME280;10614;53.198;6.570;2023-03-15T02:32:10;101148.00;;;1.80;100.00
20909;BME280;10614;53.198;6.570;2023-03-15T02:34:12;101149.75;;;1.78;100.00
20909;BME280;10614;53.198;6.570;2023-03-15T02:36:14;101154.91;;;1.77;100.00
20909;BME280;10614;53.198;6.570;2023-03-15T02:38:18;101153.19;;;1.76;100.00
20909;BME280;10614;53.198;6.570;2023-03-15T02:40:22;101155.78;;;1.69;100.00
20909;BME280;10614;53.198;6.570;2023-03-15T02:42:24;101157.50;;;1.67;100.00
20909;BME280;10614;53.198;6.570;2023-03-15T02:44:27;101160.94;;;1.63;100.00
20909;BME280;10614;53.198;6.570;2023-03-15T02:46:30;101165.28;;;1.60;100.00
20909;BME280;10614;53.198;6.570;2023-03-15T02:48:32;101159.22;;;1.58;100.00
20909;BME280;10614;53.198;6.570;2023-03-15T02:50:35;101156.63;;;1.58;100.00
20909;BME280;10614;53.198;6.570;2023-03-15T02:52:36;101157.47;;;1.55;100.00
20909;BME280;10614;53.198;6.570;2023-03-15T02:54:38;101156.59;;;1.52;100.00
20909;BME280;10614;53.198;6.570;2023-03-15T02:56:42;101151.44;;;1.50;100.00
20909;BME280;10614;53.198;6.570;2023-03-15T02:58:44;101160.06;;;1.47;100.00
20909;BME280;10614;53.198;6.570;2023-03-15T03:00:47;101162.66;;;1.46;100.00
20909;BME280;10614;53.198;6.570;2023-03-15T03:02:48;101165.22;;;1.44;100.00
20909;BME280;10614;53.198;6.570;2023-03-15T03:04:50;101174.75;;;1.44;100.00
20909;BME280;10614;53.198;6.570;2023-03-15T03:06:53;101174.72;;;1.42;100.00
20909;BME280;10614;53.198;6.570;2023-03-15T03:08:55;101182.50;;;1.39;100.00
20909;BME280;10614;53.198;6.570;2023-03-15T03:10:56;101186.84;;;1.39;100.00
20909;BME280;10614;53.198;6.570;2023-03-15T03:12:58;101192.88;;;1.38;100.00
20909;BME280;10614;53.198;6.570;2023-03-15T03:15:00;101198.06;;;1.38;100.00
20909;BME280;10614;53.198;6.570;2023-03-15T03:17:05;101202.38;;;1.36;100.00
20909;BME280;10614;53.198;6.570;2023-03-15T03:19:07;101211.03;;;1.35;100.00
20909;BME280;10614;53.198;6.570;2023-03-15T03:21:08;101211.88;;;1.35;100.00
20909;BME280;10614;53.198;6.570;2023-03-15T03:23:10;101215.34;;;1.36;100.00
20909;BME280;10614;53.198;6.570;2023-03-15T03:25:12;101211.03;;;1.35;100.00
20909;BME280;10614;53.198;6.570;2023-03-15T03:27:14;101216.22;;;1.35;100.00
20909;BME280;10614;53.198;6.570;2023-03-15T03:29:16;101225.72;;;1.33;100.00
20909;BME280;10614;53.198;6.570;2023-03-15T03:31:17;101232.66;;;1.34;100.00
20909;BME280;10614;53.198;6.570;2023-03-15T03:33:21;101233.50;;;1.33;100.00
20909;BME280;10614;53.198;6.570;2023-03-15T03:35:23;101230.03;;;1.29;100.00
20909;BME280;10614;53.198;6.570;2023-03-15T03:37:25;101241.28;;;1.31;100.00
20909;BME280;10614;53.198;6.570;2023-03-15T03:39:29;101239.53;;;1.30;100.00
20909;BME280;10614;53.198;6.570;2023-03-15T03:41:31;101249.06;;;1.30;100.00
20909;BME280;10614;53.198;6.570;2023-03-15T03:43:32;101252.50;;;1.29;100.00
20909;BME280;10614;53.198;6.570;2023-03-15T03:45:34;101264.63;;;1.30;100.00
20909;BME280;10614;53.198;6.570;2023-03-15T03:47:36;101265.47;;;1.30;100.00
20909;BME280;10614;53.198;6.570;2023-03-15T03:49:38;101268.91;;;1.26;100.00
20909;BME280;10614;53.198;6.570;2023-03-15T03:51:40;101274.09;;;1.26;100.00
20909;BME280;10614;53.198;6.570;2023-03-15T03:53:42;101281.88;;;1.27;100.00
20909;BME280;10614;53.198;6.570;2023-03-15T03:55:43;101282.75;;;1.26;100.00
20909;BME280;10614;53.198;6.570;2023-03-15T03:57:45;101280.13;;;1.23;100.00
20909;BME280;10614;53.198;6.570;2023-03-15T03:59:47;101288.78;;;1.22;100.00
20909;BME280;10614;53.198;6.570;2023-03-15T04:01:48;101291.38;;;1.22;100.00
20909;BME280;10614;53.198;6.570;2023-03-15T04:03:50;101298.28;;;1.22;100.00
20909;BME280;10614;53.198;6.570;2023-03-15T04:05:53;101301.72;;;1.21;100.00
20909;BME280;10614;53.198;6.570;2023-03-15T04:07:55;101302.56;;;1.18;100.00
20909;BME280;10614;53.198;6.570;2023-03-15T04:09:56;101306.91;;;1.15;100.00
20909;BME280;10614;53.198;6.570;2023-03-15T04:11:58;101306.00;;;1.14;100.00
20909;BME280;10614;53.198;6.570;2023-03-15T04:14:00;101309.47;;;1.13;100.00
20909;BME280;10614;53.198;6.570;2023-03-15T04:16:01;101315.50;;;1.14;100.00
20909;BME280;10614;53.198;6.570;2023-03-15T04:18:05;101314.66;;;1.13;100.00
20909;BME280;10614;53.198;6.570;2023-03-15T04:20:08;101325.88;;;1.14;100.00
20909;BME280;10614;53.198;6.570;2023-03-15T04:22:12;101327.59;;;1.10;100.00
20909;BME280;10614;53.198;6.570;2023-03-15T04:24:14;101329.31;;;1.10;100.00
20909;BME280;10614;53.198;6.570;2023-03-15T04:26:15;101337.09;;;1.08;100.00
20909;BME280;10614;53.198;6.570;2023-03-15T04:28:17;101343.13;;;1.05;100.00
20909;BME280;10614;53.198;6.570;2023-03-15T04:30:19;101347.44;;;1.05;100.00
20909;BME280;10614;53.198;6.570;2023-03-15T04:32:26;101347.44;;;1.03;100.00
20909;BME280;10614;53.198;6.570;2023-03-15T04:34:27;101355.19;;;1.05;100.00
20909;BME280;10614;53.198;6.570;2023-03-15T04:36:29;101356.94;;;1.04;100.00
20909;BME280;10614;53.198;6.570;2023-03-15T04:38:32;101361.28;;;1.07;100.00
20909;BME280;10614;53.198;6.570;2023-03-15T04:40:34;101364.75;;;1.09;100.00
20909;BME280;10614;53.198;6.570;2023-03-15T04:42:36;101364.75;;;1.09;100.00
20909;BME280;10614;53.198;6.570;2023-03-15T04:44:39;101365.59;;;1.10;100.00
20909;BME280;10614;53.198;6.570;2023-03-15T04:46:40;101371.69;;;1.10;100.00
20909;BME280;10614;53.198;6.570;2023-03-15T04:48:42;101369.06;;;1.09;100.00
20909;BME280;10614;53.198;6.570;2023-03-15T04:50:44;101367.34;;;1.09;100.00
20909;BME280;10614;53.198;6.570;2023-03-15T04:52:45;101376.81;;;1.07;100.00
20909;BME280;10614;53.198;6.570;2023-03-15T04:54:48;101375.09;;;1.08;100.00
20909;BME280;10614;53.198;6.570;2023-03-15T04:56:50;101376.00;;;1.08;100.00
20909;BME280;10614;53.198;6.570;2023-03-15T04:58:51;101371.66;;;1.07;100.00
20909;BME280;10614;53.198;6.570;2023-03-15T05:00:53;101375.97;;;1.07;100.00
20909;BME280;10614;53.198;6.570;2023-03-15T05:02:54;101374.25;;;1.05;100.00
20909;BME280;10614;53.198;6.570;2023-03-15T05:04:56;101373.38;;;1.07;100.00
20909;BME280;10614;53.198;6.570;2023-03-15T05:06:57;101378.53;;;1.03;100.00
20909;BME280;10614;53.198;6.570;2023-03-15T05:09:01;101378.53;;;1.02;100.00
20909;BME280;10614;53.198;6.570;2023-03-15T05:11:05;101369.00;;;0.99;100.00
20909;BME280;10614;53.198;6.570;2023-03-15T05:13:07;101379.38;;;0.99;100.00
20909;BME280;10614;53.198;6.570;2023-03-15T05:15:09;101388.00;;;1.00;100.00
20909;BME280;10614;53.198;6.570;2023-03-15T05:17:10;101379.38;;;0.99;100.00
20909;BME280;10614;53.198;6.570;2023-03-15T05:19:14;101380.22;;;1.00;100.00
20909;BME280;10614;53.198;6.570;2023-03-15T05:21:15;101383.66;;;0.97;100.00
20909;BME280;10614;53.198;6.570;2023-03-15T05:23:17;101386.28;;;0.99;100.00
20909;BME280;10614;53.198;6.570;2023-03-15T05:25:20;101391.44;;;0.97;100.00
20909;BME280;10614;53.198;6.570;2023-03-15T05:27:24;101390.59;;;0.97;100.00
20909;BME280;10614;53.198;6.570;2023-03-15T05:29:27;101394.00;;;0.96;100.00
20909;BME280;10614;53.198;6.570;2023-03-15T05:31:28;101397.47;;;0.95;100.00
20909;BME280;10614;53.198;6.570;2023-03-15T05:33:35;101414.72;;;0.93;100.00
20909;BME280;10614;53.198;6.570;2023-03-15T05:35:37;101404.31;;;0.88;100.00
20909;BME280;10614;53.198;6.570;2023-03-15T05:37:39;101406.88;;;0.83;100.00
20909;BME280;10614;53.198;6.570;2023-03-15T05:39:41;101417.22;;;0.80;100.00
20909;BME280;10614;53.198;6.570;2023-03-15T05:41:43;101412.88;;;0.78;100.00
20909;BME280;10614;53.198;6.570;2023-03-15T05:43:45;101408.53;;;0.75;100.00
20909;BME280;10614;53.198;6.570;2023-03-15T05:45:47;101418.91;;;0.75;100.00
20909;BME280;10614;53.198;6.570;2023-03-15T05:47:48;101426.69;;;0.75;100.00
20909;BME280;10614;53.198;6.570;2023-03-15T05:49:50;101437.03;;;0.77;100.00
20909;BME280;10614;53.198;6.570;2023-03-15T05:51:52;101424.91;;;0.71;100.00
20909;BME280;10614;53.198;6.570;2023-03-15T05:53:54;101443.13;;;0.79;100.00
20909;BME280;10614;53.198;6.570;2023-03-15T05:55:55;101456.97;;;0.81;100.00
20909;BME280;10614;53.198;6.570;2023-03-15T05:57:57;101463.84;;;0.77;100.00
20909;BME280;10614;53.198;6.570;2023-03-15T06:00:02;101463.81;;;0.76;100.00
20909;BME280;10614;53.198;6.570;2023-03-15T06:02:06;101464.66;;;0.75;100.00
20909;BME280;10614;53.198;6.570;2023-03-15T06:04:07;101465.53;;;0.74;100.00
20909;BME280;10614;53.198;6.570;2023-03-15T06:06:09;101475.00;;;0.72;100.00
20909;BME280;10614;53.198;6.570;2023-03-15T06:08:10;101472.38;;;0.69;100.00
20909;BME280;10614;53.198;6.570;2023-03-15T06:10:12;101476.72;;;0.68;100.00
20909;BME280;10614;53.198;6.570;2023-03-15T06:12:13;101478.41;;;0.68;100.00
20909;BME280;10614;53.198;6.570;2023-03-15T06:14:15;101470.63;;;0.68;100.00
20909;BME280;10614;53.198;6.570;2023-03-15T06:16:18;101481.88;;;0.67;100.00
20909;BME280;10614;53.198;6.570;2023-03-15T06:18:19;101486.19;;;0.66;100.00
20909;BME280;10614;53.198;6.570;2023-03-15T06:20:21;101484.44;;;0.65;100.00
20909;BME280;10614;53.198;6.570;2023-03-15T06:22:22;101490.47;;;0.64;100.00
20909;BME280;10614;53.198;6.570;2023-03-15T06:24:23;101488.72;;;0.61;100.00
20909;BME280;10614;53.198;6.570;2023-03-15T06:26:25;101488.69;;;0.60;100.00
20909;BME280;10614;53.198;6.570;2023-03-15T06:28:26;101484.38;;;0.60;100.00
20909;BME280;10614;53.198;6.570;2023-03-15T06:30:28;101480.00;;;0.55;100.00
20909;BME280;10614;53.198;6.570;2023-03-15T06:32:31;101493.88;;;0.60;100.00
20909;BME280;10614;53.198;6.570;2023-03-15T06:34:33;101495.59;;;0.59;100.00
20909;BME280;10614;53.198;6.570;2023-03-15T06:36:34;101505.09;;;0.59;100.00
20909;BME280;10614;53.198;6.570;2023-03-15T06:38:36;101499.91;;;0.59;100.00
20909;BME280;10614;53.198;6.570;2023-03-15T06:40:38;101502.50;;;0.60;100.00
20909;BME280;10614;53.198;6.570;2023-03-15T06:42:40;101501.66;;;0.60;100.00
20909;BME280;10614;53.198;6.570;2023-03-15T06:44:41;101502.50;;;0.59;100.00
20909;BME280;10614;53.198;6.570;2023-03-15T06:46:43;101500.81;;;0.61;100.00
20909;BME280;10614;53.198;6.570;2023-03-15T06:48:46;101507.69;;;0.59;100.00
20909;BME280;10614;53.198;6.570;2023-03-15T06:50:47;101506.00;;;0.61;100.00
20909;BME280;10614;53.198;6.570;2023-03-15T06:52:49;101510.31;;;0.62;100.00
20909;BME280;10614;53.198;6.570;2023-03-15T06:54:50;101517.19;;;0.60;100.00
20909;BME280;10614;53.198;6.570;2023-03-15T06:56:52;101515.47;;;0.60;100.00
20909;BME280;10614;53.198;6.570;2023-03-15T06:58:53;101523.28;;;0.65;100.00
20909;BME280;10614;53.198;6.570;2023-03-15T07:00:55;101537.13;;;0.67;100.00
20909;BME280;10614;53.198;6.570;2023-03-15T07:02:56;101527.66;;;0.69;100.00
20909;BME280;10614;53.198;6.570;2023-03-15T07:04:59;101534.56;;;0.70;100.00
20909;BME280;10614;53.198;6.570;2023-03-15T07:07:03;101534.63;;;0.73;100.00
20909;BME280;10614;53.198;6.570;2023-03-15T07:09:05;101533.81;;;0.77;100.00
20909;BME280;10614;53.198;6.570;2023-03-15T07:11:06;101534.72;;;0.81;100.00
20909;BME280;10614;53.198;6.570;2023-03-15T07:13:08;101538.22;;;0.84;100.00
20909;BME280;10614;53.198;6.570;2023-03-15T07:15:10;101539.06;;;0.87;100.00
20909;BME280;10614;53.198;6.570;2023-03-15T07:17:12;101544.31;;;0.90;100.00
20909;BME280;10614;53.198;6.570;2023-03-15T07:19:13;101548.66;;;0.92;100.00
20909;BME280;10614;53.198;6.570;2023-03-15T07:21:16;101553.88;;;0.94;100.00
20909;BME280;10614;53.198;6.570;2023-03-15T07:23:18;101558.19;;;0.95;100.00
20909;BME280;10614;53.198;6.570;2023-03-15T07:25:19;101565.13;;;0.97;100.00
20909;BME280;10614;53.198;6.570;2023-03-15T07:27:23;101566.88;;;1.00;100.00
20909;BME280;10614;53.198;6.570;2023-03-15T07:29:24;101569.50;;;1.01;100.00
20909;BME280;10614;53.198;6.570;2023-03-15T07:31:26;101569.50;;;1.01;100.00
20909;BME280;10614;53.198;6.570;2023-03-15T07:33:28;101563.50;;;1.05;100.00
20909;BME280;10614;53.198;6.570;2023-03-15T07:35:30;101577.34;;;1.09;100.00
20909;BME280;10614;53.198;6.570;2023-03-15T07:37:33;101577.38;;;1.12;100.00
20909;BME280;10614;53.198;6.570;2023-03-15T07:39:35;101573.09;;;1.14;100.00
20909;BME280;10614;53.198;6.570;2023-03-15T07:41:36;101579.16;;;1.15;100.00
20909;BME280;10614;53.198;6.570;2023-03-15T07:43:38;101586.97;;;1.19;100.00
20909;BME280;10614;53.198;6.570;2023-03-15T07:45:40;101587.00;;;1.22;100.00
20909;BME280;10614;53.198;6.570;2023-03-15T07:47:42;101586.22;;;1.30;100.00
20909;BME280;10614;53.198;6.570;2023-03-15T07:49:43;101595.78;;;1.34;100.00
20909;BME280;10614;53.198;6.570;2023-03-15T07:51:45;101594.06;;;1.37;100.00
20909;BME280;10614;53.198;6.570;2023-03-15T07:53:48;101601.88;;;1.40;100.00
20909;BME280;10614;53.198;6.570;2023-03-15T07:55:49;101607.09;;;1.42;100.00
20909;BME280;10614;53.198;6.570;2023-03-15T07:57:51;101601.91;;;1.45;100.00
20909;BME280;10614;53.198;6.570;2023-03-15T07:59:53;101612.34;;;1.50;100.00
20909;BME280;10614;53.198;6.570;2023-03-15T08:01:54;101613.25;;;1.53;100.00
20909;BME280;10614;53.198;6.570;2023-03-15T08:03:56;101610.69;;;1.56;100.00
20909;BME280;10614;53.198;6.570;2023-03-15T08:05:58;101630.59;;;1.59;100.00
20909;BME280;10614;53.198;6.570;2023-03-15T08:08:00;101626.34;;;1.64;100.00
20909;BME280;10614;53.198;6.570;2023-03-15T08:10:03;101624.63;;;1.67;100.00
20909;BME280;10614;53.198;6.570;2023-03-15T08:12:05;101629.00;;;1.72;100.00
20909;BME280;10614;53.198;6.570;2023-03-15T08:14:07;101629.03;;;1.75;100.00
20909;BME280;10614;53.198;6.570;2023-03-15T08:16:09;101642.91;;;1.80;100.00
20909;BME280;10614;53.198;6.570;2023-03-15T08:18:11;101642.94;;;1.84;100.00
20909;BME280;10614;53.198;6.570;2023-03-15T08:20:14;101646.47;;;1.91;100.00
20909;BME280;10614;53.198;6.570;2023-03-15T08:22:18;101663.84;;;1.97;100.00
20909;BME280;10614;53.198;6.570;2023-03-15T08:24:19;101651.75;;;2.02;100.00
20909;BME280;10614;53.198;6.570;2023-03-15T08:26:23;101654.41;;;2.06;100.00
20909;BME280;10614;53.198;6.570;2023-03-15T08:28:24;101651.84;;;2.11;100.00
20909;BME280;10614;53.198;6.570;2023-03-15T08:30:26;101657.06;;;2.16;100.00
20909;BME280;10614;53.198;6.570;2023-03-15T08:32:27;101653.63;;;2.20;100.00
20909;BME280;10614;53.198;6.570;2023-03-15T08:34:29;101662.34;;;2.25;100.00
20909;BME280;10614;53.198;6.570;2023-03-15T08:36:31;101666.66;;;2.29;100.00
20909;BME280;10614;53.198;6.570;2023-03-15T08:38:33;101663.25;;;2.33;100.00
20909;BME280;10614;53.198;6.570;2023-03-15T08:40:35;101670.22;;;2.40;100.00
20909;BME280;10614;53.198;6.570;2023-03-15T08:42:39;101670.22;;;2.43;100.00
20909;BME280;10614;53.198;6.570;2023-03-15T08:44:40;101672.00;;;2.46;100.00
20909;BME280;10614;53.198;6.570;2023-03-15T08:46:42;101683.28;;;2.46;100.00
20909;BME280;10614;53.198;6.570;2023-03-15T08:48:43;101674.59;;;2.50;100.00
20909;BME280;10614;53.198;6.570;2023-03-15T08:50:45;101685.03;;;2.53;100.00
20909;BME280;10614;53.198;6.570;2023-03-15T08:52:48;101687.66;;;2.57;100.00
20909;BME280;10614;53.198;6.570;2023-03-15T08:54:49;101700.69;;;2.58;100.00
20909;BME280;10614;53.198;6.570;2023-03-15T08:56:54;101692.03;;;2.61;100.00
20909;BME280;10614;53.198;6.570;2023-03-15T08:58:57;101688.59;;;2.66;100.00
20909;BME280;10614;53.198;6.570;2023-03-15T09:00:59;101697.28;;;2.71;100.00
20909;BME280;10614;53.198;6.570;2023-03-15T09:03:01;101706.84;;;2.74;100.00
20909;BME280;10614;53.198;6.570;2023-03-15T09:05:03;101701.66;;;2.77;100.00
20909;BME280;10614;53.198;6.570;2023-03-15T09:07:06;101693.00;;;2.80;100.00
20909;BME280;10614;53.198;6.570;2023-03-15T09:09:09;101694.75;;;2.82;100.00
20909;BME280;10614;53.198;6.570;2023-03-15T09:11:10;101699.97;;;2.87;100.00
20909;BME280;10614;53.198;6.570;2023-03-15T09:13:12;101711.25;;;2.89;100.00
20909;BME280;10614;53.198;6.570;2023-03-15T09:15:15;101701.72;;;2.92;100.00
20909;BME280;10614;53.198;6.570;2023-03-15T09:17:18;101704.34;;;2.97;100.00
20909;BME280;10614;53.198;6.570;2023-03-15T09:19:20;101687.94;;;3.03;100.00
20909;BME280;10614;53.198;6.570;2023-03-15T09:21:21;101702.69;;;3.10;100.00
20909;BME280;10614;53.198;6.570;2023-03-15T09:23:24;101712.25;;;3.15;100.00
20909;BME280;10614;53.198;6.570;2023-03-15T09:25:25;101707.94;;;3.19;100.00
20909;BME280;10614;53.198;6.570;2023-03-15T09:27:28;101691.47;;;3.22;98.92
20909;BME280;10614;53.198;6.570;2023-03-15T09:29:30;101701.91;;;3.29;98.29
20909;BME280;10614;53.198;6.570;2023-03-15T09:31:33;101702.81;;;3.37;98.73
20909;BME280;10614;53.198;6.570;2023-03-15T09:33:34;101695.00;;;3.37;96.69
20909;BME280;10614;53.198;6.570;2023-03-15T09:35:36;101698.50;;;3.43;96.32
20909;BME280;10614;53.198;6.570;2023-03-15T09:37:38;101704.56;;;3.45;95.82
20909;BME280;10614;53.198;6.570;2023-03-15T09:39:41;101701.09;;;3.50;95.40
20909;BME280;10614;53.198;6.570;2023-03-15T09:41:43;101693.31;;;3.55;94.96
20909;BME280;10614;53.198;6.570;2023-03-15T09:43:52;101701.16;;;3.61;94.85
20909;BME280;10614;53.198;6.570;2023-03-15T09:46:00;101721.97;;;3.63;94.15
20909;BME280;10614;53.198;6.570;2023-03-15T09:48:07;101715.91;;;3.67;94.00
20909;BME280;10614;53.198;6.570;2023-03-15T09:50:12;101715.94;;;3.73;93.14
20909;BME280;10614;53.198;6.570;2023-03-15T09:52:25;101716.81;;;3.78;89.82
20909;BME280;10614;53.198;6.570;2023-03-15T09:54:30;101706.41;;;3.79;87.83
20909;BME280;10614;53.198;6.570;2023-03-15T09:56:37;101714.22;;;3.84;87.71
20909;BME280;10614;53.198;6.570;2023-03-15T09:58:40;101730.72;;;3.89;87.80
20909;BME280;10614;53.198;6.570;2023-03-15T10:00:42;101708.13;;;3.93;88.47
20909;BME280;10614;53.198;6.570;2023-03-15T10:02:46;101722.91;;;3.97;86.91
20909;BME280;10614;53.198;6.570;2023-03-15T10:04:53;101722.03;;;3.99;87.28
20909;BME280;10614;53.198;6.570;2023-03-15T10:06:57;101734.22;;;4.04;86.07
20909;BME280;10614;53.198;6.570;2023-03-15T10:09:00;101726.41;;;4.08;84.27
20909;BME280;10614;53.198;6.570;2023-03-15T10:11:04;101715.09;;;4.14;83.15
20909;BME280;10614;53.198;6.570;2023-03-15T10:13:12;101716.84;;;4.16;83.15
20909;BME280;10614;53.198;6.570;2023-03-15T10:15:23;101722.06;;;4.16;82.73
20909;BME280;10614;53.198;6.570;2023-03-15T10:17:28;101726.41;;;4.17;83.22
20909;BME280;10614;53.198;6.570;2023-03-15T10:19:35;101741.19;;;4.17;82.90
20909;BME280;10614;53.198;6.570;2023-03-15T10:21:48;101743.78;;;4.21;82.81
20909;BME280;10614;53.198;6.570;2023-03-15T10:23:52;101745.50;;;4.26;83.32
20909;BME280;10614;53.198;6.570;2023-03-15T10:25:54;101740.31;;;4.26;84.82
20909;BME280;10614;53.198;6.570;2023-03-15T10:27:56;101742.03;;;4.33;85.01
20909;BME280;10614;53.198;6.570;2023-03-15T10:29:59;101758.56;;;4.39;86.55
20909;BME280;10614;53.198;6.570;2023-03-15T10:32:02;101752.50;;;4.45;85.33
20909;BME280;10614;53.198;6.570;2023-03-15T10:34:06;101743.78;;;4.52;85.87
20909;BME280;10614;53.198;6.570;2023-03-15T10:36:12;101753.34;;;4.58;85.03
20909;BME280;10614;53.198;6.570;2023-03-15T10:38:15;101768.09;;;4.65;85.20
20909;BME280;10614;53.198;6.570;2023-03-15T10:42:33;101755.94;;;4.72;82.61
20909;BME280;10614;53.198;6.570;2023-03-15T10:44:36;101760.28;;;4.71;81.93